Beloit, Kansas
Current Conditions -  °F | °C
As of 9:55 AM on Wednesday 28 Jan 2015 (Local Time) from KCNK Reporting Station
Clear Clear  
Wind Chill: 53°   Ceiling: Unl
Heat Index: 53°   Visibility: 10mi
Dew Point: 36°   Wind: 15mph
Humidity: 52%   Direction: 200°SSW
Pressure: 29.78"   Gusts: NA
Location:  39.46°N, 98.11°W
Report Text: KCNK 281555Z AUTO 20013KT 10SM CLR 12/02 A2978 RMK AO2 SLP084 T01170022
Loading
Personal Weather Stations






























Interactive Weather Map New forecast layout! Learn more

10-Day Weather Forecast

Advertisements
Track Severe Weather on mobile